sensor_id;sensor_type;location;lat;lon;timestamp;temperature;humidity
18091;DHT22;9172;49.948;9.208;2023-03-04T00:01:01;1.70;99.90
18091;DHT22;9172;49.948;9.208;2023-03-04T00:03:29;1.70;99.90
18091;DHT22;9172;49.948;9.208;2023-03-04T00:05:59;1.70;99.90
18091;DHT22;9172;49.948;9.208;2023-03-04T00:08:30;1.60;99.90
18091;DHT22;9172;49.948;9.208;2023-03-04T00:11:00;1.60;99.90
18091;DHT22;9172;49.948;9.208;2023-03-04T00:13:28;1.60;99.90
18091;DHT22;9172;49.948;9.208;2023-03-04T00:15:58;1.50;99.90
18091;DHT22;9172;49.948;9.208;2023-03-04T00:18:26;1.60;99.90
18091;DHT22;9172;49.948;9.208;2023-03-04T00:20:55;1.50;99.90
18091;DHT22;9172;49.948;9.208;2023-03-04T00:23:24;1.50;99.90
18091;DHT22;9172;49.948;9.208;2023-03-04T00:25:52;1.50;99.90
18091;DHT22;9172;49.948;9.208;2023-03-04T00:28:21;1.60;99.90
18091;DHT22;9172;49.948;9.208;2023-03-04T00:30:49;1.30;99.90
18091;DHT22;9172;49.948;9.208;2023-03-04T00:33:18;1.10;99.90
18091;DHT22;9172;49.948;9.208;2023-03-04T00:35:47;1.10;99.90
18091;DHT22;9172;49.948;9.208;2023-03-04T00:38:16;1.10;99.90
18091;DHT22;9172;49.948;9.208;2023-03-04T00:40:45;1.10;99.90
18091;DHT22;9172;49.948;9.208;2023-03-04T00:43:14;1.20;99.90
18091;DHT22;9172;49.948;9.208;2023-03-04T00:45:42;0.90;99.90
18091;DHT22;9172;49.948;9.208;2023-03-04T00:48:12;0.90;99.90
18091;DHT22;9172;49.948;9.208;2023-03-04T00:50:42;0.90;99.90
18091;DHT22;9172;49.948;9.208;2023-03-04T00:53:11;0.80;99.90
18091;DHT22;9172;49.948;9.208;2023-03-04T00:55:40;0.80;99.90
18091;DHT22;9172;49.948;9.208;2023-03-04T00:58:09;0.70;99.90
18091;DHT22;9172;49.948;9.208;2023-03-04T01:00:37;0.70;99.90
18091;DHT22;9172;49.948;9.208;2023-03-04T01:03:07;0.70;99.90
18091;DHT22;9172;49.948;9.208;2023-03-04T01:05:36;0.70;99.90
18091;DHT22;9172;49.948;9.208;2023-03-04T01:08:05;0.70;99.90
18091;DHT22;9172;49.948;9.208;2023-03-04T01:10:34;0.80;99.90
18091;DHT22;9172;49.948;9.208;2023-03-04T01:13:04;0.80;99.90
18091;DHT22;9172;49.948;9.208;2023-03-04T01:15:33;0.80;99.90
18091;DHT22;9172;49.948;9.208;2023-03-04T01:18:02;0.70;99.90
18091;DHT22;9172;49.948;9.208;2023-03-04T01:20:30;0.70;99.90
18091;DHT22;9172;49.948;9.208;2023-03-04T01:23:00;0.80;99.90
18091;DHT22;9172;49.948;9.208;2023-03-04T01:25:28;0.90;99.90
18091;DHT22;9172;49.948;9.208;2023-03-04T01:27:57;0.80;99.90
18091;DHT22;9172;49.948;9.208;2023-03-04T01:30:25;0.80;99.90
18091;DHT22;9172;49.948;9.208;2023-03-04T01:32:54;0.90;99.90
18091;DHT22;9172;49.948;9.208;2023-03-04T01:35:22;0.70;99.90
18091;DHT22;9172;49.948;9.208;2023-03-04T01:37:51;0.80;99.90
18091;DHT22;9172;49.948;9.208;2023-03-04T01:40:20;0.70;99.90
18091;DHT22;9172;49.948;9.208;2023-03-04T01:42:49;0.80;99.90
18091;DHT22;9172;49.948;9.208;2023-03-04T01:45:19;0.90;99.90
18091;DHT22;9172;49.948;9.208;2023-03-04T01:47:49;0.90;99.90
18091;DHT22;9172;49.948;9.208;2023-03-04T01:50:22;1.00;99.90
18091;DHT22;9172;49.948;9.208;2023-03-04T01:52:52;0.90;99.90
18091;DHT22;9172;49.948;9.208;2023-03-04T01:55:23;1.00;99.90
18091;DHT22;9172;49.948;9.208;2023-03-04T01:57:54;1.00;99.90
18091;DHT22;9172;49.948;9.208;2023-03-04T02:00:27;1.00;99.90
18091;DHT22;9172;49.948;9.208;2023-03-04T02:02:59;0.90;99.90
18091;DHT22;9172;49.948;9.208;2023-03-04T02:05:29;0.90;99.90
18091;DHT22;9172;49.948;9.208;2023-03-04T02:07:59;0.90;99.90
18091;DHT22;9172;49.948;9.208;2023-03-04T02:10:28;0.90;99.90
18091;DHT22;9172;49.948;9.208;2023-03-04T02:12:58;0.90;99.90
18091;DHT22;9172;49.948;9.208;2023-03-04T02:15:27;1.00;99.90
18091;DHT22;9172;49.948;9.208;2023-03-04T02:17:56;1.00;99.90
18091;DHT22;9172;49.948;9.208;2023-03-04T02:20:38;1.00;99.90
18091;DHT22;9172;49.948;9.208;2023-03-04T02:23:13;1.00;99.90
18091;DHT22;9172;49.948;9.208;2023-03-04T02:25:44;1.00;99.90
18091;DHT22;9172;49.948;9.208;2023-03-04T02:28:14;1.10;99.90
18091;DHT22;9172;49.948;9.208;2023-03-04T02:30:43;1.10;99.90
18091;DHT22;9172;49.948;9.208;2023-03-04T02:33:16;1.10;99.90
18091;DHT22;9172;49.948;9.208;2023-03-04T02:35:46;1.10;99.90
18091;DHT22;9172;49.948;9.208;2023-03-04T02:38:14;1.10;99.90
18091;DHT22;9172;49.948;9.208;2023-03-04T02:40:45;1.10;99.90
18091;DHT22;9172;49.948;9.208;2023-03-04T02:43:15;1.10;99.90
18091;DHT22;9172;49.948;9.208;2023-03-04T02:45:45;1.10;99.90
18091;DHT22;9172;49.948;9.208;2023-03-04T02:48:17;1.10;99.90
18091;DHT22;9172;49.948;9.208;2023-03-04T02:50:47;1.10;99.90
18091;DHT22;9172;49.948;9.208;2023-03-04T02:53:17;1.10;99.90
18091;DHT22;9172;49.948;9.208;2023-03-04T02:55:47;1.10;99.90
18091;DHT22;9172;49.948;9.208;2023-03-04T02:58:16;1.00;99.90
18091;DHT22;9172;49.948;9.208;2023-03-04T03:00:44;1.00;99.90
18091;DHT22;9172;49.948;9.208;2023-03-04T03:03:14;0.90;99.90
18091;DHT22;9172;49.948;9.208;2023-03-04T03:05:43;1.00;99.90
18091;DHT22;9172;49.948;9.208;2023-03-04T03:08:12;1.00;99.90
18091;DHT22;9172;49.948;9.208;2023-03-04T03:10:42;1.10;99.90
18091;DHT22;9172;49.948;9.208;2023-03-04T03:13:10;1.10;99.90
18091;DHT22;9172;49.948;9.208;2023-03-04T03:15:40;1.20;99.90
18091;DHT22;9172;49.948;9.208;2023-03-04T03:18:09;1.30;99.90
18091;DHT22;9172;49.948;9.208;2023-03-04T03:20:38;1.30;99.90
18091;DHT22;9172;49.948;9.208;2023-03-04T03:23:07;1.30;99.90
18091;DHT22;9172;49.948;9.208;2023-03-04T03:25:36;1.30;99.90
18091;DHT22;9172;49.948;9.208;2023-03-04T03:28:05;1.30;99.90
18091;DHT22;9172;49.948;9.208;2023-03-04T03:30:33;1.30;99.90
18091;DHT22;9172;49.948;9.208;2023-03-04T03:33:02;1.30;99.90
18091;DHT22;9172;49.948;9.208;2023-03-04T03:35:30;1.40;99.90
18091;DHT22;9172;49.948;9.208;2023-03-04T03:38:00;1.40;99.90
18091;DHT22;9172;49.948;9.208;2023-03-04T03:40:29;1.40;99.90
18091;DHT22;9172;49.948;9.208;2023-03-04T03:42:58;1.40;99.90
18091;DHT22;9172;49.948;9.208;2023-03-04T03:45:27;1.40;99.90
18091;DHT22;9172;49.948;9.208;2023-03-04T03:47:55;1.40;99.90
18091;DHT22;9172;49.948;9.208;2023-03-04T03:50:24;1.40;99.90
18091;DHT22;9172;49.948;9.208;2023-03-04T03:52:54;1.40;99.90
18091;DHT22;9172;49.948;9.208;2023-03-04T03:55:22;1.50;99.90
18091;DHT22;9172;49.948;9.208;2023-03-04T03:57:51;1.50;99.90
18091;DHT22;9172;49.948;9.208;2023-03-04T04:00:20;1.50;99.90
18091;DHT22;9172;49.948;9.208;2023-03-04T04:02:49;1.50;99.90
18091;DHT22;9172;49.948;9.208;2023-03-04T04:05:18;1.50;99.90
18091;DHT22;9172;49.948;9.208;2023-03-04T04:07:46;1.50;99.90
18091;DHT22;9172;49.948;9.208;2023-03-04T04:10:15;1.60;99.90
18091;DHT22;9172;49.948;9.208;2023-03-04T04:12:44;1.50;99.90
18091;DHT22;9172;49.948;9.208;2023-03-04T04:15:13;1.40;99.90
18091;DHT22;9172;49.948;9.208;2023-03-04T04:17:42;1.40;99.90
18091;DHT22;9172;49.948;9.208;2023-03-04T04:20:12;1.30;99.90
18091;DHT22;9172;49.948;9.208;2023-03-04T04:22:41;1.20;99.90
18091;DHT22;9172;49.948;9.208;2023-03-04T04:25:09;1.10;99.90
18091;DHT22;9172;49.948;9.208;2023-03-04T04:27:38;1.10;99.90
18091;DHT22;9172;49.948;9.208;2023-03-04T04:30:09;1.00;99.90
18091;DHT22;9172;49.948;9.208;2023-03-04T04:32:38;1.10;99.90
18091;DHT22;9172;49.948;9.208;2023-03-04T04:35:08;1.10;99.90
18091;DHT22;9172;49.948;9.208;2023-03-04T04:37:36;1.10;99.90
18091;DHT22;9172;49.948;9.208;2023-03-04T04:40:07;1.20;99.90
18091;DHT22;9172;49.948;9.208;2023-03-04T04:42:38;1.20;99.90
18091;DHT22;9172;49.948;9.208;2023-03-04T04:45:09;1.30;99.90
18091;DHT22;9172;49.948;9.208;2023-03-04T04:47:40;1.40;99.90
18091;DHT22;9172;49.948;9.208;2023-03-04T04:50:10;1.40;99.90
18091;DHT22;9172;49.948;9.208;2023-03-04T04:52:40;1.50;99.90
18091;DHT22;9172;49.948;9.208;2023-03-04T04:55:10;1.40;99.90
18091;DHT22;9172;49.948;9.208;2023-03-04T04:57:39;1.30;99.90
18091;DHT22;9172;49.948;9.208;2023-03-04T05:00:12;1.30;99.90
18091;DHT22;9172;49.948;9.208;2023-03-04T05:02:41;1.30;99.90
18091;DHT22;9172;49.948;9.208;2023-03-04T05:05:10;1.30;99.90
18091;DHT22;9172;49.948;9.208;2023-03-04T05:07:38;1.20;99.90
18091;DHT22;9172;49.948;9.208;2023-03-04T05:10:09;1.10;99.90
18091;DHT22;9172;49.948;9.208;2023-03-04T05:12:38;1.10;99.90
18091;DHT22;9172;49.948;9.208;2023-03-04T05:15:08;1.10;99.90
18091;DHT22;9172;49.948;9.208;2023-03-04T05:17:38;1.00;99.90
18091;DHT22;9172;49.948;9.208;2023-03-04T05:20:09;0.90;99.90
18091;DHT22;9172;49.948;9.208;2023-03-04T05:22:39;0.80;99.90
18091;DHT22;9172;49.948;9.208;2023-03-04T05:25:08;0.70;99.90
18091;DHT22;9172;49.948;9.208;2023-03-04T05:27:39;0.70;99.90
18091;DHT22;9172;49.948;9.208;2023-03-04T05:30:11;0.80;99.90
18091;DHT22;9172;49.948;9.208;2023-03-04T05:32:40;0.80;99.90
18091;DHT22;9172;49.948;9.208;2023-03-04T05:35:10;0.90;99.90
18091;DHT22;9172;49.948;9.208;2023-03-04T05:37:39;0.90;99.90
18091;DHT22;9172;49.948;9.208;2023-03-04T05:40:11;0.90;99.90
18091;DHT22;9172;49.948;9.208;2023-03-04T05:42:39;1.00;99.90
18091;DHT22;9172;49.948;9.208;2023-03-04T05:45:11;1.00;99.90
18091;DHT22;9172;49.948;9.208;2023-03-04T05:47:40;1.10;99.90
18091;DHT22;9172;49.948;9.208;2023-03-04T05:50:11;1.10;99.90
18091;DHT22;9172;49.948;9.208;2023-03-04T05:52:40;1.00;99.90
18091;DHT22;9172;49.948;9.208;2023-03-04T05:55:10;1.00;99.90
18091;DHT22;9172;49.948;9.208;2023-03-04T05:57:39;1.10;99.90
18091;DHT22;9172;49.948;9.208;2023-03-04T06:00:10;1.20;99.90
18091;DHT22;9172;49.948;9.208;2023-03-04T06:02:40;1.30;99.90
18091;DHT22;9172;49.948;9.208;2023-03-04T06:05:11;1.30;99.90
18091;DHT22;9172;49.948;9.208;2023-03-04T06:07:40;1.40;99.90
18091;DHT22;9172;49.948;9.208;2023-03-04T06:10:12;1.50;99.90
18091;DHT22;9172;49.948;9.208;2023-03-04T06:12:41;1.50;99.90
18091;DHT22;9172;49.948;9.208;2023-03-04T06:15:10;1.50;99.90
18091;DHT22;9172;49.948;9.208;2023-03-04T06:17:41;1.50;99.90
18091;DHT22;9172;49.948;9.208;2023-03-04T06:20:12;1.60;99.90
18091;DHT22;9172;49.948;9.208;2023-03-04T06:22:42;1.60;99.90
18091;DHT22;9172;49.948;9.208;2023-03-04T06:25:11;1.60;99.90
18091;DHT22;9172;49.948;9.208;2023-03-04T06:27:40;1.60;99.90
18091;DHT22;9172;49.948;9.208;2023-03-04T06:30:13;1.60;99.90
18091;DHT22;9172;49.948;9.208;2023-03-04T06:32:43;1.60;99.90
18091;DHT22;9172;49.948;9.208;2023-03-04T06:35:13;1.50;99.90
18091;DHT22;9172;49.948;9.208;2023-03-04T06:37:43;1.50;99.90
18091;DHT22;9172;49.948;9.208;2023-03-04T06:40:12;1.50;99.90
18091;DHT22;9172;49.948;9.208;2023-03-04T06:42:42;1.60;99.90
18091;DHT22;9172;49.948;9.208;2023-03-04T06:45:11;1.60;99.90
18091;DHT22;9172;49.948;9.208;2023-03-04T06:47:40;1.60;99.90
18091;DHT22;9172;49.948;9.208;2023-03-04T06:50:12;1.50;99.90
18091;DHT22;9172;49.948;9.208;2023-03-04T06:52:40;1.50;99.90
18091;DHT22;9172;49.948;9.208;2023-03-04T06:55:10;1.50;99.90
18091;DHT22;9172;49.948;9.208;2023-03-04T06:57:40;1.50;99.90
18091;DHT22;9172;49.948;9.208;2023-03-04T07:00:12;1.60;99.90
18091;DHT22;9172;49.948;9.208;2023-03-04T07:02:43;1.60;99.90
18091;DHT22;9172;49.948;9.208;2023-03-04T07:05:11;1.70;99.90
18091;DHT22;9172;49.948;9.208;2023-03-04T07:07:42;1.70;99.90
18091;DHT22;9172;49.948;9.208;2023-03-04T07:10:11;1.80;99.90
18091;DHT22;9172;49.948;9.208;2023-03-04T07:12:40;1.80;99.90
18091;DHT22;9172;49.948;9.208;2023-03-04T07:15:10;1.70;99.90
18091;DHT22;9172;49.948;9.208;2023-03-04T07:17:39;1.80;99.90
18091;DHT22;9172;49.948;9.208;2023-03-04T07:20:10;1.80;99.90
18091;DHT22;9172;49.948;9.208;2023-03-04T07:22:39;1.90;99.90
18091;DHT22;9172;49.948;9.208;2023-03-04T07:25:09;1.90;99.90
18091;DHT22;9172;49.948;9.208;2023-03-04T07:27:38;1.90;99.90
18091;DHT22;9172;49.948;9.208;2023-03-04T07:30:10;2.00;99.90
18091;DHT22;9172;49.948;9.208;2023-03-04T07:32:38;2.00;99.90
18091;DHT22;9172;49.948;9.208;2023-03-04T07:35:08;2.00;99.90
18091;DHT22;9172;49.948;9.208;2023-03-04T07:37:37;2.00;99.90
18091;DHT22;9172;49.948;9.208;2023-03-04T07:40:09;2.00;99.90
18091;DHT22;9172;49.948;9.208;2023-03-04T07:42:38;2.00;99.90
18091;DHT22;9172;49.948;9.208;2023-03-04T07:45:09;2.10;99.90
18091;DHT22;9172;49.948;9.208;2023-03-04T07:47:39;2.10;99.90
18091;DHT22;9172;49.948;9.208;2023-03-04T07:50:11;2.10;99.90
18091;DHT22;9172;49.948;9.208;2023-03-04T07:52:41;2.10;99.90
18091;DHT22;9172;49.948;9.208;2023-03-04T07:55:11;2.00;99.90
18091;DHT22;9172;49.948;9.208;2023-03-04T07:57:40;2.00;99.90
18091;DHT22;9172;49.948;9.208;2023-03-04T08:00:13;2.00;99.90
18091;DHT22;9172;49.948;9.208;2023-03-04T08:02:42;2.00;99.90
18091;DHT22;9172;49.948;9.208;2023-03-04T08:05:11;2.00;99.90
18091;DHT22;9172;49.948;9.208;2023-03-04T08:07:40;2.00;99.90
18091;DHT22;9172;49.948;9.208;2023-03-04T08:10:11;1.90;99.90
18091;DHT22;9172;49.948;9.208;2023-03-04T08:12:39;1.80;99.90
18091;DHT22;9172;49.948;9.208;2023-03-04T08:15:10;1.80;99.90
18091;DHT22;9172;49.948;9.208;2023-03-04T08:17:38;1.80;99.90
18091;DHT22;9172;49.948;9.208;2023-03-04T08:20:10;1.70;99.90
18091;DHT22;9172;49.948;9.208;2023-03-04T08:22:39;1.70;99.90
18091;DHT22;9172;49.948;9.208;2023-03-04T08:25:08;1.70;99.90
18091;DHT22;9172;49.948;9.208;2023-03-04T08:27:38;1.70;99.90
18091;DHT22;9172;49.948;9.208;2023-03-04T08:30:09;1.60;99.90
18091;DHT22;9172;49.948;9.208;2023-03-04T08:32:38;1.60;99.90
18091;DHT22;9172;49.948;9.208;2023-03-04T08:35:08;1.60;99.90
18091;DHT22;9172;49.948;9.208;2023-03-04T08:37:37;1.60;99.90
18091;DHT22;9172;49.948;9.208;2023-03-04T08:40:08;1.70;99.90
18091;DHT22;9172;49.948;9.208;2023-03-04T08:42:38;1.70;99.90
18091;DHT22;9172;49.948;9.208;2023-03-04T08:45:08;1.60;99.90
18091;DHT22;9172;49.948;9.208;2023-03-04T08:47:37;1.70;99.90
18091;DHT22;9172;49.948;9.208;2023-03-04T08:50:08;1.70;99.90
18091;DHT22;9172;49.948;9.208;2023-03-04T08:52:37;1.80;99.90
18091;DHT22;9172;49.948;9.208;2023-03-04T08:55:07;1.80;99.90
18091;DHT22;9172;49.948;9.208;2023-03-04T08:57:36;1.70;99.90
18091;DHT22;9172;49.948;9.208;2023-03-04T09:00:07;1.80;99.90
18091;DHT22;9172;49.948;9.208;2023-03-04T09:02:35;1.90;99.90
18091;DHT22;9172;49.948;9.208;2023-03-04T09:05:06;1.90;99.90
18091;DHT22;9172;49.948;9.208;2023-03-04T09:07:35;1.90;99.90
18091;DHT22;9172;49.948;9.208;2023-03-04T09:10:07;2.00;99.90
18091;DHT22;9172;49.948;9.208;2023-03-04T09:12:36;2.10;99.90
18091;DHT22;9172;49.948;9.208;2023-03-04T09:15:07;2.10;99.90
18091;DHT22;9172;49.948;9.208;2023-03-04T09:17:37;2.20;99.90
18091;DHT22;9172;49.948;9.208;2023-03-04T09:20:08;2.20;99.90
18091;DHT22;9172;49.948;9.208;2023-03-04T09:22:38;2.30;99.90
18091;DHT22;9172;49.948;9.208;2023-03-04T09:25:10;2.20;99.90
18091;DHT22;9172;49.948;9.208;2023-03-04T09:27:39;2.20;99.90
18091;DHT22;9172;49.948;9.208;2023-03-04T09:30:10;2.20;99.90
18091;DHT22;9172;49.948;9.208;2023-03-04T09:32:39;2.20;99.90
18091;DHT22;9172;49.948;9.208;2023-03-04T09:35:08;2.20;99.90
18091;DHT22;9172;49.948;9.208;2023-03-04T09:37:39;2.30;99.90
18091;DHT22;9172;49.948;9.208;2023-03-04T09:40:11;2.30;99.90
18091;DHT22;9172;49.948;9.208;2023-03-04T09:42:43;2.40;99.90
18091;DHT22;9172;49.948;9.208;2023-03-04T09:45:16;2.40;99.90
18091;DHT22;9172;49.948;9.208;2023-03-04T09:47:46;2.40;99.90
18091;DHT22;9172;49.948;9.208;2023-03-04T09:50:17;2.40;99.90
18091;DHT22;9172;49.948;9.208;2023-03-04T09:52:56;2.50;99.90
18091;DHT22;9172;49.948;9.208;2023-03-04T09:55:30;2.50;99.90
18091;DHT22;9172;49.948;9.208;2023-03-04T09:58:04;2.50;99.90
18091;DHT22;9172;49.948;9.208;2023-03-04T10:00:36;2.50;99.90
18091;DHT22;9172;49.948;9.208;2023-03-04T10:03:13;2.60;99.90
18091;DHT22;9172;49.948;9.208;2023-03-04T10:05:47;2.60;99.90
18091;DHT22;9172;49.948;9.208;2023-03-04T10:08:36;2.70;99.90
18091;DHT22;9172;49.948;9.208;2023-03-04T10:11:10;2.70;99.90
18091;DHT22;9172;49.948;9.208;2023-03-04T10:13:44;2.70;99.90
18091;DHT22;9172;49.948;9.208;2023-03-04T10:16:15;2.80;99.90
18091;DHT22;9172;49.948;9.208;2023-03-04T10:18:47;2.80;99.90
18091;DHT22;9172;49.948;9.208;2023-03-04T10:21:20;2.80;99.90
18091;DHT22;9172;49.948;9.208;2023-03-04T10:23:49;2.90;99.90
18091;DHT22;9172;49.948;9.208;2023-03-04T10:26:21;2.90;99.90
18091;DHT22;9172;49.948;9.208;2023-03-04T10:28:50;3.00;99.90
18091;DHT22;9172;49.948;9.208;2023-03-04T10:31:26;3.00;99.90
18091;DHT22;9172;49.948;9.208;2023-03-04T10:33:52;3.10;99.90
18091;DHT22;9172;49.948;9.208;2023-03-04T10:36:38;3.10;99.90
18091;DHT22;9172;49.948;9.208;2023-03-04T10:39:11;3.10;99.90
18091;DHT22;9172;49.948;9.208;2023-03-04T10:41:43;3.10;99.90
18091;DHT22;9172;49.948;9.208;2023-03-04T10:44:16;3.10;99.90
18091;DHT22;9172;49.948;9.208;2023-03-04T10:46:46;3.20;99.90
18091;DHT22;9172;49.948;9.208;2023-03-04T10:49:17;3.20;99.90
18091;DHT22;9172;49.948;9.208;2023-03-04T10:51:47;3.20;99.90
18091;DHT22;9172;49.948;9.208;2023-03-04T10:54:24;3.20;99.90
18091;DHT22;9172;49.948;9.208;2023-03-04T10:56:56;3.30;99.90
18091;DHT22;9172;49.948;9.208;2023-03-04T10:59:38;3.30;99.90
18091;DHT22;9172;49.948;9.208;2023-03-04T11:02:15;3.30;99.90
18091;DHT22;9172;49.948;9.208;2023-03-04T11:04:49;3.40;99.90
18091;DHT22;9172;49.948;9.208;2023-03-04T11:07:20;3.40;99.90
18091;DHT22;9172;49.948;9.208;2023-03-04T11:09:49;3.40;99.90
18091;DHT22;9172;49.948;9.208;2023-03-04T11:12:20;3.50;99.90
18091;DHT22;9172;49.948;9.208;2023-03-04T11:14:50;3.50;99.90
18091;DHT22;9172;49.948;9.208;2023-03-04T11:17:22;3.60;99.90
18091;DHT22;9172;49.948;9.208;2023-03-04T11:19:56;3.60;99.90
18091;DHT22;9172;49.948;9.208;2023-03-04T11:22:27;3.70;99.90
18091;DHT22;9172;49.948;9.208;2023-03-04T11:24:59;3.70;99.90
18091;DHT22;9172;49.948;9.208;2023-03-04T11:27:36;3.70;99.90
18091;DHT22;9172;49.948;9.208;2023-03-04T11:33:23;3.70;99.90
18091;DHT22;9172;49.948;9.208;2023-03-04T11:36:01;3.80;99.90
18091;DHT22;9172;49.948;9.208;2023-03-04T11:38:32;3.80;99.90
18091;DHT22;9172;49.948;9.208;2023-03-04T11:41:03;3.90;99.90
18091;DHT22;9172;49.948;9.208;2023-03-04T11:43:36;3.90;99.90
18091;DHT22;9172;49.948;9.208;2023-03-04T11:46:27;3.90;99.90
18091;DHT22;9172;49.948;9.208;2023-03-04T11:49:00;3.90;99.90
18091;DHT22;9172;49.948;9.208;2023-03-04T11:51:33;4.00;99.90
18091;DHT22;9172;49.948;9.208;2023-03-04T11:54:10;4.00;99.90
18091;DHT22;9172;49.948;9.208;2023-03-04T11:56:42;4.10;99.90
18091;DHT22;9172;49.948;9.208;2023-03-04T11:59:33;4.10;99.90
18091;DHT22;9172;49.948;9.208;2023-03-04T12:02:15;4.20;99.90
18091;DHT22;9172;49.948;9.208;2023-03-04T12:04:57;4.20;99.90
18091;DHT22;9172;49.948;9.208;2023-03-04T12:07:44;4.20;99.90
18091;DHT22;9172;49.948;9.208;2023-03-04T12:13:08;4.20;99.90
18091;DHT22;9172;49.948;9.208;2023-03-04T12:15:39;4.20;99.90
18091;DHT22;9172;49.948;9.208;2023-03-04T12:18:19;4.10;99.90
18091;DHT22;9172;49.948;9.208;2023-03-04T12:20:56;4.10;99.90
18091;DHT22;9172;49.948;9.208;2023-03-04T12:23:39;4.10;99.90
18091;DHT22;9172;49.948;9.208;2023-03-04T12:26:10;4.10;99.90
18091;DHT22;9172;49.948;9.208;2023-03-04T12:28:45;4.10;99.90
18091;DHT22;9172;49.948;9.208;2023-03-04T12:34:17;4.20;99.90
18091;DHT22;9172;49.948;9.208;2023-03-04T12:36:47;4.20;99.90
18091;DHT22;9172;49.948;9.208;2023-03-04T12:39:25;4.20;99.90
18091;DHT22;9172;49.948;9.208;2023-03-04T12:42:00;4.30;99.90
18091;DHT22;9172;49.948;9.208;2023-03-04T12:44:32;4.40;99.90
18091;DHT22;9172;49.948;9.208;2023-03-04T12:50:04;4.40;99.90
18091;DHT22;9172;49.948;9.208;2023-03-04T12:52:39;4.30;99.90
18091;DHT22;9172;49.948;9.208;2023-03-04T12:55:11;4.40;99.90
18091;DHT22;9172;49.948;9.208;2023-03-04T12:57:42;4.40;99.90
18091;DHT22;9172;49.948;9.208;2023-03-04T13:00:19;4.40;99.90
18091;DHT22;9172;49.948;9.208;2023-03-04T13:02:55;4.50;99.90
18091;DHT22;9172;49.948;9.208;2023-03-04T13:08:17;4.50;99.90
18091;DHT22;9172;49.948;9.208;2023-03-04T13:10:47;4.60;99.90
18091;DHT22;9172;49.948;9.208;2023-03-04T13:16:33;4.70;99.90
18091;DHT22;9172;49.948;9.208;2023-03-04T13:19:03;4.70;99.90
18091;DHT22;9172;49.948;9.208;2023-03-04T13:21:35;4.70;99.90
18091;DHT22;9172;49.948;9.208;2023-03-04T13:27:46;4.70;99.90
18091;DHT22;9172;49.948;9.208;2023-03-04T13:33:58;4.80;99.90
18091;DHT22;9172;49.948;9.208;2023-03-04T13:39:34;4.80;99.90
18091;DHT22;9172;49.948;9.208;2023-03-04T13:42:37;4.80;99.90
18091;DHT22;9172;49.948;9.208;2023-03-04T13:45:33;4.90;99.90
18091;DHT22;9172;49.948;9.208;2023-03-04T13:48:03;4.90;99.90
18091;DHT22;9172;49.948;9.208;2023-03-04T13:50:36;4.90;99.90
18091;DHT22;9172;49.948;9.208;2023-03-04T13:53:37;4.90;99.90
18091;DHT22;9172;49.948;9.208;2023-03-04T13:56:32;4.90;99.90
18091;DHT22;9172;49.948;9.208;2023-03-04T13:59:14;4.90;99.90
18091;DHT22;9172;49.948;9.208;2023-03-04T14:01:56;4.90;99.90
18091;DHT22;9172;49.948;9.208;2023-03-04T14:04:32;4.90;99.90
18091;DHT22;9172;49.948;9.208;2023-03-04T14:07:02;4.90;99.90
18091;DHT22;9172;49.948;9.208;2023-03-04T14:09:33;5.00;99.90
18091;DHT22;9172;49.948;9.208;2023-03-04T14:14:43;5.00;99.90
18091;DHT22;9172;49.948;9.208;2023-03-04T14:17:16;5.00;99.90
18091;DHT22;9172;49.948;9.208;2023-03-04T14:19:46;5.00;99.90
18091;DHT22;9172;49.948;9.208;2023-03-04T14:25:03;4.90;99.90
18091;DHT22;9172;49.948;9.208;2023-03-04T14:27:34;4.90;99.90
18091;DHT22;9172;49.948;9.208;2023-03-04T14:30:06;4.90;99.90
18091;DHT22;9172;49.948;9.208;2023-03-04T14:32:36;4.90;99.90
18091;DHT22;9172;49.948;9.208;2023-03-04T14:35:14;5.00;99.90
18091;DHT22;9172;49.948;9.208;2023-03-04T14:40:21;4.90;99.90
18091;DHT22;9172;49.948;9.208;2023-03-04T14:42:52;5.00;99.90
18091;DHT22;9172;49.948;9.208;2023-03-04T14:45:23;5.00;99.90
18091;DHT22;9172;49.948;9.208;2023-03-04T14:47:55;5.00;99.90
18091;DHT22;9172;49.948;9.208;2023-03-04T14:50:24;5.00;99.90
18091;DHT22;9172;49.948;9.208;2023-03-04T14:53:13;5.00;99.90
18091;DHT22;9172;49.948;9.208;2023-03-04T14:55:59;5.00;99.90
18091;DHT22;9172;49.948;9.208;2023-03-04T14:58:28;5.00;99.90
18091;DHT22;9172;49.948;9.208;2023-03-04T15:01:12;5.00;99.90
18091;DHT22;9172;49.948;9.208;2023-03-04T15:03:43;5.00;99.90
18091;DHT22;9172;49.948;9.208;2023-03-04T15:06:18;4.90;99.90
18091;DHT22;9172;49.948;9.208;2023-03-04T15:08:54;4.90;99.90
18091;DHT22;9172;49.948;9.208;2023-03-04T15:11:25;4.90;99.90
18091;DHT22;9172;49.948;9.208;2023-03-04T15:13:55;4.90;99.90
18091;DHT22;9172;49.948;9.208;2023-03-04T15:16:26;4.80;99.90
18091;DHT22;9172;49.948;9.208;2023-03-04T15:19:01;4.80;99.90
18091;DHT22;9172;49.948;9.208;2023-03-04T15:21:35;4.80;99.90
18091;DHT22;9172;49.948;9.208;2023-03-04T15:24:05;4.80;99.90
18091;DHT22;9172;49.948;9.208;2023-03-04T15:26:37;4.80;99.90
18091;DHT22;9172;49.948;9.208;2023-03-04T15:29:13;4.80;99.90
18091;DHT22;9172;49.948;9.208;2023-03-04T15:31:43;4.80;99.90
18091;DHT22;9172;49.948;9.208;2023-03-04T15:34:15;4.80;99.90
18091;DHT22;9172;49.948;9.208;2023-03-04T15:36:46;4.80;99.90
18091;DHT22;9172;49.948;9.208;2023-03-04T15:39:17;4.80;99.90
18091;DHT22;9172;49.948;9.208;2023-03-04T15:41:46;4.80;99.90
18091;DHT22;9172;49.948;9.208;2023-03-04T15:44:16;4.80;99.90
18091;DHT22;9172;49.948;9.208;2023-03-04T15:46:45;4.80;99.90
18091;DHT22;9172;49.948;9.208;2023-03-04T15:49:14;4.70;99.90
18091;DHT22;9172;49.948;9.208;2023-03-04T15:51:43;4.80;99.90
18091;DHT22;9172;49.948;9.208;2023-03-04T15:54:12;4.80;99.90
18091;DHT22;9172;49.948;9.208;2023-03-04T15:56:42;4.80;99.90
18091;DHT22;9172;49.948;9.208;2023-03-04T15:59:12;4.80;99.90
18091;DHT22;9172;49.948;9.208;2023-03-04T16:01:42;4.80;99.90
18091;DHT22;9172;49.948;9.208;2023-03-04T16:04:13;4.80;99.90
18091;DHT22;9172;49.948;9.208;2023-03-04T16:06:44;4.80;99.90
18091;DHT22;9172;49.948;9.208;2023-03-04T16:09:15;4.80;99.90
18091;DHT22;9172;49.948;9.208;2023-03-04T16:11:47;4.80;99.90
18091;DHT22;9172;49.948;9.208;2023-03-04T16:14:16;4.80;99.90
18091;DHT22;9172;49.948;9.208;2023-03-04T16:16:46;4.80;99.90
18091;DHT22;9172;49.948;9.208;2023-03-04T16:19:16;4.80;99.90
18091;DHT22;9172;49.948;9.208;2023-03-04T16:21:44;4.80;99.90
18091;DHT22;9172;49.948;9.208;2023-03-04T16:24:17;4.80;99.90
18091;DHT22;9172;49.948;9.208;2023-03-04T16:26:48;4.80;99.90
18091;DHT22;9172;49.948;9.208;2023-03-04T16:31:53;4.80;99.90
18091;DHT22;9172;49.948;9.208;2023-03-04T16:34:22;4.80;99.90
18091;DHT22;9172;49.948;9.208;2023-03-04T16:36:50;4.80;99.90
18091;DHT22;9172;49.948;9.208;2023-03-04T16:39:21;4.70;99.90
18091;DHT22;9172;49.948;9.208;2023-03-04T16:41:52;4.80;99.90
18091;DHT22;9172;49.948;9.208;2023-03-04T16:44:21;4.80;99.90
18091;DHT22;9172;49.948;9.208;2023-03-04T16:46:49;4.80;99.90
18091;DHT22;9172;49.948;9.208;2023-03-04T16:49:19;4.80;99.90
18091;DHT22;9172;49.948;9.208;2023-03-04T16:51:49;4.80;99.90
18091;DHT22;9172;49.948;9.208;2023-03-04T16:54:21;4.80;99.90
18091;DHT22;9172;49.948;9.208;2023-03-04T16:56:48;4.90;99.90
18091;DHT22;9172;49.948;9.208;2023-03-04T16:59:18;4.90;99.90
18091;DHT22;9172;49.948;9.208;2023-03-04T17:01:48;4.90;99.90
18091;DHT22;9172;49.948;9.208;2023-03-04T17:04:17;4.80;99.90
18091;DHT22;9172;49.948;9.208;2023-03-04T17:06:45;4.80;99.90